createdAt,value
2022-10-08T00:00:51.565Z,98742.22
2022-10-08T00:03:19.396Z,98753.13
2022-10-08T00:06:02.338Z,98751.97
2022-10-08T00:08:30.386Z,98759.63
2022-10-08T00:11:00.481Z,98759.81
2022-10-08T00:13:29.598Z,98766.81
2022-10-08T00:15:58.116Z,98768.63
2022-10-08T00:18:24.576Z,98758.28
2022-10-08T00:20:51.292Z,98768.59
2022-10-08T00:23:17.746Z,98758.34
2022-10-08T00:25:44.936Z,98766.16
2022-10-08T00:28:13.583Z,98768.03
2022-10-08T00:30:41.514Z,98762.50
2022-10-08T00:33:10.210Z,98758.75
2022-10-08T00:35:38.591Z,98753.38
2022-10-08T00:38:06.037Z,98756.75
2022-10-08T00:40:32.465Z,98766.97
2022-10-08T00:43:00.356Z,98768.63
2022-10-08T00:45:26.982Z,98774.88
2022-10-08T00:47:56.150Z,98772.91
2022-10-08T00:50:30.558Z,98781.63
2022-10-08T00:53:01.940Z,98773.97
2022-10-08T00:55:29.201Z,98775.19
2022-10-08T00:58:01.138Z,98776.09
2022-10-08T01:00:29.128Z,98772.81
2022-10-08T01:02:55.899Z,98772.63
2022-10-08T01:05:39.277Z,98781.81
2022-10-08T01:08:24.677Z,98769.47
2022-10-08T01:11:08.204Z,98770.19
2022-10-08T01:13:53.273Z,98760.63
2022-10-08T01:16:32.590Z,98767.44
2022-10-08T01:19:11.189Z,98766.44
2022-10-08T01:22:05.609Z,98764.00
2022-10-08T01:25:05.912Z,98770.00
2022-10-08T01:27:34.325Z,98765.00
2022-10-08T01:30:05.607Z,98771.81
2022-10-08T01:32:41.680Z,98770.53
2022-10-08T01:35:13.665Z,98778.63
2022-10-08T01:37:43.393Z,98773.00
2022-10-08T01:40:21.460Z,98775.81
2022-10-08T01:42:52.111Z,98765.53
2022-10-08T01:45:25.046Z,98767.06
2022-10-08T01:47:54.776Z,98761.19
2022-10-08T01:50:30.269Z,98767.53
2022-10-08T01:53:02.050Z,98773.00
2022-10-08T01:55:39.061Z,98762.81
2022-10-08T01:58:15.871Z,98760.28
2022-10-08T02:00:43.126Z,98758.19
2022-10-08T02:03:13.174Z,98765.00
2022-10-08T02:05:45.949Z,98765.72
2022-10-08T02:08:13.172Z,98754.25
2022-10-08T02:10:40.541Z,98757.53
2022-10-08T02:13:08.492Z,98762.06
2022-10-08T02:15:37.953Z,98764.81
2022-10-08T02:18:18.625Z,98766.53
2022-10-08T02:20:59.733Z,98772.16
2022-10-08T02:23:37.018Z,98768.31
2022-10-08T02:26:10.277Z,98775.00
2022-10-08T02:28:43.975Z,98777.25
2022-10-08T02:31:35.304Z,98772.44
2022-10-08T02:34:37.793Z,98768.34
2022-10-08T02:37:15.418Z,98772.38
2022-10-08T02:39:45.096Z,98768.53
2022-10-08T02:42:15.801Z,98772.00
2022-10-08T02:44:46.165Z,98777.53
2022-10-08T02:47:18.281Z,98779.63
2022-10-08T02:49:52.574Z,98786.06
2022-10-08T02:52:20.789Z,98787.31
2022-10-08T02:54:50.360Z,98788.88
2022-10-08T02:57:31.126Z,98788.09
2022-10-08T02:59:58.874Z,98784.19
2022-10-08T03:02:37.295Z,98784.53
2022-10-08T03:05:09.755Z,98785.88
2022-10-08T03:07:36.208Z,98787.06
2022-10-08T03:10:06.939Z,98798.13
2022-10-08T03:12:34.533Z,98802.31
2022-10-08T03:15:01.266Z,98798.50
2022-10-08T03:17:37.004Z,98799.13
2022-10-08T03:20:06.528Z,98799.97
2022-10-08T03:22:34.220Z,98802.22
2022-10-08T03:25:00.864Z,98799.78
2022-10-08T03:27:27.432Z,98808.00
2022-10-08T03:29:57.146Z,98803.81
2022-10-08T03:32:24.710Z,98811.00
2022-10-08T03:34:51.833Z,98813.06
2022-10-08T03:37:18.664Z,98815.81
2022-10-08T03:39:45.561Z,98816.28
2022-10-08T03:42:12.649Z,98814.22
2022-10-08T03:44:39.170Z,98808.88
2022-10-08T03:47:05.656Z,98814.88
2022-10-08T03:49:32.127Z,98810.47
2022-10-08T03:51:58.556Z,98816.44
2022-10-08T03:54:25.024Z,98814.50
2022-10-08T03:56:51.482Z,98817.59
2022-10-08T03:59:17.967Z,98819.41
2022-10-08T04:01:44.476Z,98820.84
2022-10-08T04:04:11.054Z,98811.72
2022-10-08T04:06:37.557Z,98821.41
2022-10-08T04:09:04.005Z,98824.03
2022-10-08T04:11:30.690Z,98829.13
2022-10-08T04:13:57.207Z,98831.50
2022-10-08T04:16:23.673Z,98833.75
2022-10-08T04:18:50.252Z,98829.59
2022-10-08T04:21:18.180Z,98822.63
2022-10-08T04:23:45.580Z,98829.56
2022-10-08T04:26:13.506Z,98835.69
2022-10-08T04:28:42.242Z,98826.22
2022-10-08T04:31:12.938Z,98831.72
2022-10-08T04:33:39.631Z,98831.88
2022-10-08T04:36:13.667Z,98836.28
2022-10-08T04:38:42.013Z,98835.63
2022-10-08T04:41:16.727Z,98828.59
2022-10-08T04:43:44.909Z,98835.34
2022-10-08T04:46:14.467Z,98833.56
2022-10-08T04:48:49.546Z,98833.56
2022-10-08T04:51:16.413Z,98835.59
2022-10-08T04:53:43.425Z,98829.78
2022-10-08T04:56:18.357Z,98838.66
2022-10-08T04:58:45.092Z,98840.78
2022-10-08T05:01:14.538Z,98852.50
2022-10-08T05:03:45.128Z,98846.44
2022-10-08T05:06:12.445Z,98852.63
2022-10-08T05:08:39.279Z,98860.41
2022-10-08T05:11:06.309Z,98859.31
2022-10-08T05:13:32.897Z,98853.88
2022-10-08T05:16:07.801Z,98856.69
2022-10-08T05:18:35.527Z,98864.38
2022-10-08T05:21:16.329Z,98866.22
2022-10-08T05:23:44.151Z,98868.22
2022-10-08T05:26:16.125Z,98866.22
2022-10-08T05:28:44.229Z,98875.69
2022-10-08T05:31:10.829Z,98872.41
2022-10-08T05:33:37.451Z,98877.84
2022-10-08T05:36:08.629Z,98879.53
2022-10-08T05:38:36.018Z,98879.63
2022-10-08T05:41:17.188Z,98878.31
2022-10-08T05:43:44.026Z,98888.09
2022-10-08T05:46:11.163Z,98881.16
2022-10-08T05:48:38.359Z,98888.78
2022-10-08T05:51:07.041Z,98886.72
2022-10-08T05:53:41.576Z,98889.50
2022-10-08T05:56:10.899Z,98890.16
2022-10-08T05:58:39.479Z,98894.75
2022-10-08T06:01:28.100Z,98898.81
2022-10-08T06:03:57.018Z,98901.47
2022-10-08T06:06:24.686Z,98907.91
2022-10-08T06:08:56.006Z,98908.69
2022-10-08T06:11:22.538Z,98914.63
2022-10-08T06:13:53.962Z,98910.69
2022-10-08T06:16:21.084Z,98911.19
2022-10-08T06:18:47.678Z,98914.59
2022-10-08T06:21:17.082Z,98912.06
2022-10-08T06:23:49.730Z,98915.72
2022-10-08T06:26:20.343Z,98921.06
2022-10-08T06:28:46.879Z,98928.50
2022-10-08T06:31:13.530Z,98928.22
2022-10-08T06:33:40.355Z,98931.53
2022-10-08T06:36:12.961Z,98925.75
2022-10-08T06:38:39.511Z,98935.25
2022-10-08T06:41:05.997Z,98925.13
2022-10-08T06:43:32.492Z,98929.25
2022-10-08T06:46:00.219Z,98936.50
2022-10-08T06:48:27.438Z,98938.84
2022-10-08T06:51:06.233Z,98934.69
2022-10-08T06:53:33.218Z,98939.91
2022-10-08T06:56:04.767Z,98942.13
2022-10-08T06:58:31.561Z,98945.22
2022-10-08T07:01:10.293Z,98946.72
2022-10-08T07:03:37.206Z,98953.97
2022-10-08T07:06:07.045Z,98953.31
2022-10-08T07:08:35.921Z,98957.78
2022-10-08T07:11:17.379Z,98951.81
2022-10-08T07:13:44.889Z,98965.81
2022-10-08T07:16:21.343Z,98958.41
2022-10-08T07:18:50.088Z,98968.09
2022-10-08T07:21:18.531Z,98974.31
2022-10-08T07:23:45.563Z,98971.75
2022-10-08T07:26:15.067Z,98973.31
2022-10-08T07:28:48.695Z,98973.47
2022-10-08T07:31:18.279Z,98979.53
2022-10-08T07:33:44.825Z,98981.34
2022-10-08T07:36:13.875Z,98985.50
2022-10-08T07:38:41.321Z,98977.13
2022-10-08T07:41:09.256Z,98978.13
2022-10-08T07:43:37.028Z,98986.91
2022-10-08T07:46:05.946Z,98984.69
2022-10-08T07:48:34.206Z,98990.06
2022-10-08T07:51:15.664Z,98993.56
2022-10-08T07:53:42.723Z,98984.53
2022-10-08T07:56:11.395Z,98981.94
2022-10-08T07:58:38.576Z,98987.38
2022-10-08T08:01:08.725Z,98992.69
2022-10-08T08:03:35.396Z,98990.38
2022-10-08T08:06:07.767Z,98995.16
2022-10-08T08:08:35.870Z,98997.75
2022-10-08T08:11:04.597Z,99004.13
2022-10-08T08:13:36.800Z,98998.31
2022-10-08T08:16:06.851Z,98998.34
2022-10-08T08:18:36.488Z,98999.34
2022-10-08T08:21:08.878Z,99008.94
2022-10-08T08:23:38.157Z,99005.91
2022-10-08T08:26:07.703Z,99003.66
2022-10-08T08:28:34.336Z,98999.16
2022-10-08T08:31:28.707Z,99009.00
2022-10-08T08:33:59.047Z,99008.44
2022-10-08T08:36:30.865Z,99007.19
2022-10-08T08:38:57.981Z,99009.97
2022-10-08T08:41:33.629Z,99010.44
2022-10-08T08:44:02.460Z,99012.91
2022-10-08T08:46:33.869Z,99017.72
2022-10-08T08:49:07.506Z,99019.69
2022-10-08T08:51:34.604Z,99026.47
2022-10-08T08:54:01.625Z,99025.69
2022-10-08T08:56:29.391Z,99028.16
2022-10-08T08:59:05.853Z,99033.81
2022-10-08T09:01:36.641Z,99030.75
2022-10-08T09:04:29.400Z,99032.59
2022-10-08T09:06:58.263Z,99036.06
2022-10-08T09:09:37.114Z,99044.44
2022-10-08T09:12:20.470Z,99045.84
2022-10-08T09:14:56.710Z,99043.00
2022-10-08T09:17:31.464Z,99039.09
2022-10-08T09:19:58.435Z,99039.06
2022-10-08T09:22:28.622Z,99052.13
2022-10-08T09:25:05.619Z,99046.84
2022-10-08T09:28:05.876Z,99045.97
2022-10-08T09:30:39.499Z,99036.03
2022-10-08T09:33:18.655Z,99042.41
2022-10-08T09:35:48.999Z,99037.03
2022-10-08T09:38:27.233Z,99039.44
2022-10-08T09:41:07.590Z,99038.97
2022-10-08T09:43:35.501Z,99040.44
2022-10-08T09:46:11.264Z,99048.03
2022-10-08T09:48:39.457Z,99048.09
2022-10-08T09:51:14.530Z,99048.06
2022-10-08T09:53:41.070Z,99055.31
2022-10-08T09:56:09.038Z,99061.78
2022-10-08T09:58:51.354Z,99064.56
2022-10-08T10:01:19.005Z,99071.22
2022-10-08T10:03:51.085Z,99062.19
2022-10-08T10:06:26.057Z,99060.97
2022-10-08T10:09:04.719Z,99064.28
2022-10-08T10:11:37.807Z,99068.59
2022-10-08T10:14:18.135Z,99069.19
2022-10-08T10:16:46.554Z,99061.47
2022-10-08T10:19:20.854Z,99063.22
2022-10-08T10:21:59.559Z,99062.44
2022-10-08T10:24:49.332Z,99062.75
2022-10-08T10:27:30.390Z,99061.84
2022-10-08T10:30:12.890Z,99058.16
2022-10-08T10:32:49.895Z,99057.28
2022-10-08T10:35:30.362Z,99063.03
2022-10-08T10:38:05.271Z,99062.06
2022-10-08T10:40:41.853Z,99055.91
2022-10-08T10:43:20.687Z,99055.56
2022-10-08T10:45:53.822Z,99051.31
2022-10-08T10:48:20.484Z,99056.28
2022-10-08T10:51:00.203Z,99061.72
2022-10-08T10:53:47.126Z,99060.22
2022-10-08T10:56:17.861Z,99065.13
2022-10-08T10:59:31.348Z,99071.56
2022-10-08T11:02:19.415Z,99068.59
2022-10-08T11:05:01.883Z,99067.59
2022-10-08T11:07:43.917Z,99068.16
2022-10-08T11:10:44.781Z,99064.81
2022-10-08T11:13:44.262Z,99074.34
2022-10-08T11:16:38.731Z,99069.84
2022-10-08T11:19:34.255Z,99070.13
2022-10-08T11:22:06.651Z,99066.97
2022-10-08T11:25:07.186Z,99071.50
2022-10-08T11:27:55.122Z,99066.28
2022-10-08T11:30:27.148Z,99072.13
2022-10-08T11:32:56.876Z,99072.44
2022-10-08T11:35:41.687Z,99072.03
2022-10-08T11:38:14.253Z,99079.63
2022-10-08T11:40:51.797Z,99082.97
2022-10-08T11:43:48.676Z,99077.41
2022-10-08T11:46:28.392Z,99080.44
2022-10-08T11:49:13.773Z,99074.84
2022-10-08T11:51:45.357Z,99074.78
2022-10-08T11:54:29.054Z,99070.78
2022-10-08T11:58:07.078Z,99077.91
2022-10-08T12:00:27.862Z,99068.69
2022-10-08T12:02:55.567Z,99063.03
2022-10-08T12:05:22.023Z,99067.59
2022-10-08T12:07:51.942Z,99072.13
2022-10-08T12:10:18.356Z,99067.94
2022-10-08T12:12:51.012Z,99072.13
2022-10-08T12:15:23.672Z,99067.31
2022-10-08T12:17:54.697Z,99074.47
2022-10-08T12:20:23.848Z,99074.81
2022-10-08T12:23:09.424Z,99078.25
2022-10-08T12:25:59.224Z,99070.69
2022-10-08T12:28:28.720Z,99074.34
2022-10-08T12:30:58.542Z,99073.53
2022-10-08T12:33:25.513Z,99079.31
2022-10-08T12:36:07.885Z,99075.66
2022-10-08T12:39:02.652Z,99071.34
2022-10-08T12:41:45.669Z,99067.81
2022-10-08T12:44:29.927Z,99064.06
2022-10-08T12:47:15.783Z,99063.75
2022-10-08T12:49:54.456Z,99062.03
2022-10-08T12:52:22.305Z,99062.50
2022-10-08T12:54:52.389Z,99062.19
2022-10-08T12:57:38.322Z,99054.06
2022-10-08T13:00:11.218Z,99060.94
2022-10-08T13:02:41.186Z,99045.94
2022-10-08T13:05:26.380Z,99056.81
2022-10-08T13:07:52.924Z,99062.97
2022-10-08T13:10:22.876Z,99050.56
2022-10-08T13:13:02.269Z,99061.81
2022-10-08T13:15:30.638Z,99057.63
2022-10-08T13:17:57.098Z,99060.69
2022-10-08T13:20:24.299Z,99060.06
2022-10-08T13:22:51.406Z,99060.03
2022-10-08T13:25:36.227Z,99060.22
2022-10-08T13:28:14.467Z,99060.75
2022-10-08T13:30:42.586Z,99050.84
2022-10-08T13:33:23.815Z,99057.63
2022-10-08T13:35:57.383Z,99059.25
2022-10-08T13:38:27.719Z,99068.69
2022-10-08T13:41:02.841Z,99070.03
2022-10-08T13:43:30.453Z,99066.81
2022-10-08T13:45:56.898Z,99063.75
2022-10-08T13:48:23.463Z,99065.66
2022-10-08T13:50:52.233Z,99066.00
2022-10-08T13:53:24.596Z,99062.94
2022-10-08T13:55:51.786Z,99063.00
2022-10-08T13:58:19.943Z,99065.50
2022-10-08T14:00:48.260Z,99057.50
2022-10-08T14:03:14.941Z,99063.22
2022-10-08T14:05:44.353Z,99065.66
2022-10-08T14:08:23.469Z,99061.59
2022-10-08T14:10:53.059Z,99060.66
2022-10-08T14:13:20.824Z,99062.88
2022-10-08T14:15:47.296Z,99066.13
2022-10-08T14:18:13.823Z,99064.13
2022-10-08T14:20:40.593Z,99070.22
2022-10-08T14:23:07.094Z,99076.06
2022-10-08T14:25:33.581Z,99073.69
2022-10-08T14:28:00.932Z,99075.81
2022-10-08T14:30:28.159Z,99076.09
2022-10-08T14:32:54.874Z,99071.59
2022-10-08T14:35:21.825Z,99077.13
2022-10-08T14:37:48.485Z,99070.78
2022-10-08T14:40:21.471Z,99064.84
2022-10-08T14:42:48.224Z,99063.22
2022-10-08T14:45:15.108Z,99068.72
2022-10-08T14:47:41.985Z,99069.31
2022-10-08T14:50:09.362Z,99064.81
2022-10-08T14:52:40.469Z,99069.16
2022-10-08T14:55:10.495Z,99067.25
2022-10-08T14:57:36.974Z,99060.56
2022-10-08T15:00:04.643Z,99066.53
2022-10-08T15:02:31.099Z,99062.28
2022-10-08T15:04:57.569Z,99065.28
2022-10-08T15:07:24.029Z,99054.78
2022-10-08T15:09:50.589Z,99055.22
2022-10-08T15:12:17.077Z,99060.63
2022-10-08T15:14:43.539Z,99059.25
2022-10-08T15:17:09.987Z,99058.69
2022-10-08T15:19:36.458Z,99066.56
2022-10-08T15:22:02.959Z,99063.09
2022-10-08T15:24:29.499Z,99070.91
2022-10-08T15:26:56.007Z,99060.28
2022-10-08T15:29:22.493Z,99064.84
2022-10-08T15:31:50.671Z,99071.75
2022-10-08T15:34:19.218Z,99072.44
2022-10-08T15:36:46.216Z,99071.41
2022-10-08T15:39:15.260Z,99075.69
2022-10-08T15:41:44.604Z,99075.28
2022-10-08T15:44:17.927Z,99070.56
2022-10-08T15:46:48.649Z,99080.81
2022-10-08T15:49:15.553Z,99075.91
2022-10-08T15:51:42.405Z,99075.47
2022-10-08T15:54:08.892Z,99075.84
2022-10-08T15:56:35.605Z,99083.88
2022-10-08T15:59:02.217Z,99089.09
2022-10-08T16:01:29.738Z,99085.22
2022-10-08T16:03:57.245Z,99089.47
2022-10-08T16:06:27.179Z,99087.00
2022-10-08T16:08:56.714Z,99094.34
2022-10-08T16:11:30.948Z,99091.00
2022-10-08T16:14:08.343Z,99089.72
2022-10-08T16:16:36.123Z,99097.91
2022-10-08T16:19:05.485Z,99099.53
2022-10-08T16:21:33.442Z,99106.94
2022-10-08T16:24:01.227Z,99115.50
2022-10-08T16:26:29.319Z,99111.00
2022-10-08T16:28:59.114Z,99113.56
2022-10-08T16:31:27.677Z,99103.88
2022-10-08T16:33:56.227Z,99116.47
2022-10-08T16:36:23.166Z,99121.38
2022-10-08T16:38:49.748Z,99134.47
2022-10-08T16:41:18.768Z,99129.00
2022-10-08T16:43:47.250Z,99131.25
2022-10-08T16:46:23.016Z,99138.75
2022-10-08T16:48:58.053Z,99140.22
2022-10-08T16:51:27.561Z,99152.00
2022-10-08T16:53:56.362Z,99151.09
2022-10-08T16:56:25.353Z,99156.06
2022-10-08T16:58:53.505Z,99158.88
2022-10-08T17:01:21.070Z,99163.75
2022-10-08T17:03:49.071Z,99170.38
2022-10-08T17:06:16.840Z,99171.75
2022-10-08T17:08:43.495Z,99171.22
2022-10-08T17:11:11.767Z,99181.50
2022-10-08T17:13:47.056Z,99183.53
2022-10-08T17:16:14.636Z,99177.91
2022-10-08T17:18:43.156Z,99185.38
2022-10-08T17:21:10.129Z,99191.84
2022-10-08T17:23:38.146Z,99197.88
2022-10-08T17:26:09.067Z,99198.03
2022-10-08T17:28:38.474Z,99208.28
2022-10-08T17:31:06.969Z,99215.16
2022-10-08T17:33:35.895Z,99218.41
2022-10-08T17:36:09.374Z,99221.50
2022-10-08T17:38:36.722Z,99229.88
2022-10-08T17:41:22.718Z,99230.84
2022-10-08T17:43:50.327Z,99232.03
2022-10-08T17:46:21.570Z,99232.63
2022-10-08T17:48:48.588Z,99239.47
2022-10-08T17:51:20.577Z,99242.50
2022-10-08T17:53:54.109Z,99245.84
2022-10-08T17:56:21.675Z,99250.97
2022-10-08T17:58:48.646Z,99258.97
2022-10-08T18:01:18.005Z,99261.16
2022-10-08T18:03:56.687Z,99256.56
2022-10-08T18:06:25.512Z,99256.69
2022-10-08T18:08:57.015Z,99261.03
2022-10-08T18:11:24.710Z,99261.09
2022-10-08T18:13:51.236Z,99273.44
2022-10-08T18:16:19.276Z,99269.34
2022-10-08T18:18:46.570Z,99262.06
2022-10-08T18:21:15.954Z,99269.84
2022-10-08T18:23:43.045Z,99273.09
2022-10-08T18:26:21.710Z,99282.31
2022-10-08T18:28:51.111Z,99285.56
2022-10-08T18:31:19.203Z,99292.47
2022-10-08T18:33:47.423Z,99295.31
2022-10-08T18:36:15.188Z,99291.38
2022-10-08T18:38:43.883Z,99294.34
2022-10-08T18:41:19.799Z,99300.66
2022-10-08T18:43:47.550Z,99304.88
2022-10-08T18:46:15.085Z,99307.66
2022-10-08T18:48:42.136Z,99303.56
2022-10-08T18:51:17.890Z,99313.16
2022-10-08T18:53:45.782Z,99314.13
2022-10-08T18:56:17.102Z,99310.22
2022-10-08T18:58:44.675Z,99317.47
2022-10-08T19:01:28.505Z,99312.41
2022-10-08T19:03:57.458Z,99321.56
2022-10-08T19:06:27.236Z,99314.44
2022-10-08T19:08:55.517Z,99324.59
2022-10-08T19:11:24.635Z,99326.44
2022-10-08T19:13:53.082Z,99335.47
2022-10-08T19:16:20.029Z,99342.25
2022-10-08T19:18:53.988Z,99340.06
2022-10-08T19:21:21.069Z,99333.53
2022-10-08T19:23:47.797Z,99342.09
2022-10-08T19:26:14.676Z,99350.13
2022-10-08T19:28:46.769Z,99349.59
2022-10-08T19:31:14.531Z,99355.28
2022-10-08T19:33:41.299Z,99348.88
2022-10-08T19:36:08.811Z,99355.06
2022-10-08T19:38:35.541Z,99358.16
2022-10-08T19:41:06.850Z,99360.56
2022-10-08T19:43:33.564Z,99362.06
2022-10-08T19:46:06.785Z,99365.34
2022-10-08T19:48:33.374Z,99364.22
2022-10-08T19:51:06.961Z,99369.94
2022-10-08T19:53:34.218Z,99377.34
2022-10-08T19:56:04.463Z,99377.50
2022-10-08T19:58:31.124Z,99375.28
2022-10-08T20:01:04.404Z,99381.44
2022-10-08T20:03:31.569Z,99388.09
2022-10-08T20:06:01.855Z,99387.97
2022-10-08T20:08:28.497Z,99389.06
2022-10-08T20:10:54.929Z,99391.34
2022-10-08T20:13:21.380Z,99387.97
2022-10-08T20:15:51.327Z,99395.91
2022-10-08T20:18:18.225Z,99401.00
2022-10-08T20:20:44.855Z,99401.66
2022-10-08T20:23:11.490Z,99399.28
2022-10-08T20:25:38.187Z,99400.53
2022-10-08T20:28:04.768Z,99392.38
2022-10-08T20:30:31.401Z,99396.28
2022-10-08T20:32:57.933Z,99400.78
2022-10-08T20:35:24.602Z,99409.84
2022-10-08T20:37:51.214Z,99403.31
2022-10-08T20:40:17.744Z,99402.25
2022-10-08T20:42:44.356Z,99405.41
2022-10-08T20:45:12.063Z,99417.59
2022-10-08T20:47:38.676Z,99415.50
2022-10-08T20:50:05.665Z,99409.31
2022-10-08T20:52:32.209Z,99411.59
2022-10-08T20:54:58.759Z,99415.47
2022-10-08T20:57:25.331Z,99411.28
2022-10-08T20:59:51.864Z,99412.63
2022-10-08T21:02:19.827Z,99417.19
2022-10-08T21:04:46.651Z,99419.53
2022-10-08T21:07:13.265Z,99419.56
2022-10-08T21:09:39.814Z,99426.41
2022-10-08T21:12:06.401Z,99423.53
2022-10-08T21:14:32.892Z,99425.03
2022-10-08T21:16:59.371Z,99428.75
2022-10-08T21:19:26.318Z,99433.13
2022-10-08T21:21:53.216Z,99432.03
2022-10-08T21:24:20.138Z,99436.81
2022-10-08T21:26:46.784Z,99437.22
2022-10-08T21:29:14.447Z,99437.44
2022-10-08T21:31:41.867Z,99439.72
2022-10-08T21:34:10.248Z,99441.41
2022-10-08T21:36:38.828Z,99438.97
2022-10-08T21:39:07.707Z,99437.00
2022-10-08T21:41:36.372Z,99431.78
2022-10-08T21:44:05.645Z,99434.16
2022-10-08T21:46:34.773Z,99433.75
2022-10-08T21:49:06.983Z,99429.75
2022-10-08T21:51:34.280Z,99435.56
2022-10-08T21:54:02.186Z,99436.78
2022-10-08T21:56:32.379Z,99429.00
2022-10-08T21:59:01.122Z,99429.00
2022-10-08T22:01:39.668Z,99433.53
2022-10-08T22:04:12.121Z,99435.06
2022-10-08T22:06:41.931Z,99431.84
2022-10-08T22:09:11.705Z,99427.66
2022-10-08T22:11:39.124Z,99427.78
2022-10-08T22:14:06.132Z,99436.75
2022-10-08T22:16:33.297Z,99429.75
2022-10-08T22:19:00.287Z,99428.31
2022-10-08T22:21:27.278Z,99436.66
2022-10-08T22:23:54.218Z,99437.22
2022-10-08T22:26:32.910Z,99432.72
2022-10-08T22:28:59.867Z,99426.25
2022-10-08T22:31:27.507Z,99427.50
2022-10-08T22:33:54.275Z,99431.47
2022-10-08T22:36:26.175Z,99423.25
2022-10-08T22:38:53.469Z,99421.44
2022-10-08T22:41:23.077Z,99420.50
2022-10-08T22:43:50.371Z,99421.69
2022-10-08T22:46:22.525Z,99426.69
2022-10-08T22:48:49.461Z,99422.00
2022-10-08T22:51:19.195Z,99421.03
2022-10-08T22:53:46.730Z,99415.00
2022-10-08T22:56:17.290Z,99420.63
2022-10-08T22:58:44.299Z,99418.28
2022-10-08T23:01:13.320Z,99418.28
2022-10-08T23:03:40.429Z,99419.38
2022-10-08T23:06:16.182Z,99414.84
2022-10-08T23:08:43.775Z,99420.63
2022-10-08T23:11:10.800Z,99414.97
2022-10-08T23:13:37.363Z,99423.09
2022-10-08T23:16:07.850Z,99420.75
2022-10-08T23:18:37.057Z,99427.34
2022-10-08T23:21:09.469Z,99416.34
2022-10-08T23:23:36.276Z,99416.06
2022-10-08T23:26:04.952Z,99416.34
2022-10-08T23:28:33.012Z,99418.41
2022-10-08T23:31:07.817Z,99417.19
2022-10-08T23:33:37.792Z,99418.13
2022-10-08T23:36:06.029Z,99417.72
2022-10-08T23:38:33.765Z,99418.41
2022-10-08T23:41:01.718Z,99415.91
2022-10-08T23:43:29.623Z,99419.22
2022-10-08T23:45:56.533Z,99414.94
2022-10-08T23:48:23.046Z,99417.53
2022-10-08T23:50:52.961Z,99419.22
2022-10-08T23:53:20.773Z,99415.38
2022-10-08T23:55:47.932Z,99414.16
2022-10-08T23:58:17.849Z,99400.94
